Weather at Khartoum International Airport

Public forecast

Using degrees Celsius for public forecast. Weather courtesy of forecast.io.

Current aviation weather report (METAR) for Khartoum International Airport

Retrieved 2020/11/23 15:30 UTC (0 seconds ago):

HSSS 231530Z 35006KT CAVOK 32/10 Q1012 NOSIG

Aviation forecast (TAF) for Khartoum International Airport

Retrieved 2020/11/23 12:40 UTC (3 hours ago):

TAF HSSS 231100Z 2312/2418 34011G21KT CAVOK TEMPO 2404/2408 6000 NSC